Time;durP1;ratioP1;P1;durP2;ratioP2;P2;SDS_P1;SDS_P2;PMS_P1;PMS_P2;Temp;Humidity;BMP_temperature;BMP_pressure;BME280_temperature;BME280_humidity;BME280_pressure;Samples;Min_cycle;Max_cycle;Signal;HPM_P1;HPM_P2
2023/05/02 00:00:57;;;;;;;;;;;;;;;9.74;49.74;100473.42;104151;277;97430;-56
2023/05/02 00:03:29;;;;;;;;;;;;;;;9.73;49.90;100472.16;104568;277;120500;-56
2023/05/02 00:06:03;;;;;;;;;;;;;;;9.71;50.01;100467.48;104113;278;105873;-54
2023/05/02 00:08:35;;;;;;;;;;;;;;;9.72;50.44;100469.54;104622;277;112543;-54
2023/05/02 00:11:07;;;;;;;;;;;;;;;9.72;50.29;100464.73;104642;277;93124;-55
2023/05/02 00:13:39;;;;;;;;;;;;;;;9.73;50.43;100465.61;104665;277;96569;-55
2023/05/02 00:16:11;;;;;;;;;;;;;;;9.75;50.42;100463.10;104114;277;122865;-55
2023/05/02 00:18:43;;;;;;;;;;;;;;;9.74;50.50;100455.11;104090;277;105161;-55
2023/05/02 00:21:17;;;;;;;;;;;;;;;9.72;50.41;100456.92;104120;277;113254;-57
2023/05/02 00:23:50;;;;;;;;;;;;;;;9.70;50.59;100450.90;104093;277;95195;-57
2023/05/02 00:26:23;;;;;;;;;;;;;;;9.69;50.52;100447.75;104618;277;98053;-53
2023/05/02 00:28:55;;;;;;;;;;;;;;;9.71;51.08;100443.91;104119;277;122228;-54
2023/05/02 00:31:27;;;;;;;;;;;;;;;9.73;50.94;100442.20;104145;277;104288;-54
2023/05/02 00:33:59;;;;;;;;;;;;;;;9.75;50.92;100441.27;104161;277;114010;-54
2023/05/02 00:36:31;;;;;;;;;;;;;;;9.75;51.09;100440.73;104191;277;92382;-55
2023/05/02 00:39:04;;;;;;;;;;;;;;;9.76;50.90;100437.19;104152;277;97293;-55
2023/05/02 00:41:36;;;;;;;;;;;;;;;9.75;51.04;100438.08;103993;278;121560;-53
2023/05/02 00:44:08;;;;;;;;;;;;;;;9.73;50.97;100433.58;104156;277;104406;-54
2023/05/02 00:46:41;;;;;;;;;;;;;;;9.75;51.12;100432.73;104124;277;114522;-57
2023/05/02 00:49:13;;;;;;;;;;;;;;;9.75;51.09;100430.27;104617;277;93508;-57
2023/05/02 00:51:45;;;;;;;;;;;;;;;9.79;51.40;100427.27;104616;277;97865;-55
2023/05/02 00:54:17;;;;;;;;;;;;;;;9.82;51.25;100428.80;104126;277;122417;-55
2023/05/02 00:56:50;;;;;;;;;;;;;;;9.78;51.26;100428.80;104089;277;105950;-56
2023/05/02 00:59:22;;;;;;;;;;;;;;;9.76;51.18;100425.68;104595;277;112939;-56
2023/05/02 01:02:08;;;;;;;;;;;;;;;9.72;51.24;100420.23;104095;277;94692;-57
2023/05/02 01:04:50;;;;;;;;;;;;;;;9.69;51.48;100419.66;104126;277;97717;-57
2023/05/02 01:07:36;;;;;;;;;;;;;;;9.69;51.49;100417.43;104029;277;121676;-55
2023/05/02 01:10:19;;;;;;;;;;;;;;;9.67;51.47;100414.17;104156;277;106196;-54
2023/05/02 01:12:59;;;;;;;;;;;;;;;9.67;51.44;100414.38;104126;277;115043;-55
2023/05/02 01:15:33;;;;;;;;;;;;;;;9.67;51.63;100419.31;104115;277;95123;-56
2023/05/02 01:18:06;;;;;;;;;;;;;;;9.69;51.62;100416.16;104612;277;96492;-56
2023/05/02 01:20:42;;;;;;;;;;;;;;;9.70;51.75;100410.41;104138;277;121497;-55
2023/05/02 01:23:23;;;;;;;;;;;;;;;9.68;51.57;100411.16;104645;277;105762;-54
2023/05/02 01:26:06;;;;;;;;;;;;;;;9.67;51.65;100406.61;104120;277;114373;-54
2023/05/02 01:28:48;;;;;;;;;;;;;;;9.68;51.66;100411.06;103624;277;546442;-54
2023/05/02 01:31:20;;;;;;;;;;;;;;;9.67;51.61;100407.61;104088;277;97058;-54
2023/05/02 01:33:53;;;;;;;;;;;;;;;9.67;51.65;100408.83;104165;277;121916;-54
2023/05/02 01:36:29;;;;;;;;;;;;;;;9.68;51.68;100405.61;104625;277;104980;-54
2023/05/02 01:39:02;;;;;;;;;;;;;;;9.70;51.95;100402.48;104591;277;113494;-54
2023/05/02 01:41:36;;;;;;;;;;;;;;;9.73;51.92;100399.66;104175;277;94555;-54
2023/05/02 01:44:09;;;;;;;;;;;;;;;9.76;51.92;100393.52;104183;277;96761;-54
2023/05/02 01:46:43;;;;;;;;;;;;;;;9.74;51.78;100387.60;104147;277;121495;-54
2023/05/02 01:49:16;;;;;;;;;;;;;;;9.71;51.79;100387.25;104159;269;105598;-55
2023/05/02 01:51:50;;;;;;;;;;;;;;;9.70;51.74;100382.05;104106;277;114179;-56
2023/05/02 01:54:26;;;;;;;;;;;;;;;9.69;51.80;100382.50;104137;277;94447;-56
2023/05/02 01:56:59;;;;;;;;;;;;;;;9.67;51.71;100387.44;104122;277;97691;-56
2023/05/02 01:59:33;;;;;;;;;;;;;;;9.65;51.90;100392.14;104111;277;122510;-55
2023/05/02 02:02:06;;;;;;;;;;;;;;;9.64;51.82;100384.57;104613;277;105924;-55
2023/05/02 02:04:39;;;;;;;;;;;;;;;9.62;52.04;100378.48;104105;277;114984;-55
2023/05/02 02:07:14;;;;;;;;;;;;;;;9.60;51.94;100379.80;104135;277;93863;-54
2023/05/02 02:09:46;;;;;;;;;;;;;;;9.58;52.01;100370.03;104140;278;98838;-57
2023/05/02 02:12:23;;;;;;;;;;;;;;;9.57;52.37;100368.86;104131;277;121024;-57
2023/05/02 02:15:00;;;;;;;;;;;;;;;9.55;52.31;100367.30;104117;277;106282;-54
2023/05/02 02:17:38;;;;;;;;;;;;;;;9.53;52.29;100366.31;104574;270;114295;-54
2023/05/02 02:20:13;;;;;;;;;;;;;;;9.49;52.48;100368.06;104129;277;92331;-54
2023/05/02 02:22:46;;;;;;;;;;;;;;;9.46;52.43;100370.52;104136;277;97605;-54
2023/05/02 02:25:18;;;;;;;;;;;;;;;9.45;52.63;100369.21;104143;277;122716;-54
2023/05/02 02:27:50;;;;;;;;;;;;;;;9.43;52.46;100368.55;104160;277;104986;-54
2023/05/02 02:30:23;;;;;;;;;;;;;;;9.39;52.64;100368.16;104606;277;114357;-54
2023/05/02 02:32:55;;;;;;;;;;;;;;;9.36;52.68;100364.34;104588;277;92992;-54
2023/05/02 02:35:30;;;;;;;;;;;;;;;9.35;52.68;100367.55;104608;277;97939;-56
2023/05/02 02:38:09;;;;;;;;;;;;;;;9.35;52.88;100364.66;104125;277;122126;-56
2023/05/02 02:40:46;;;;;;;;;;;;;;;9.35;52.86;100365.16;104142;277;105744;-54
2023/05/02 02:43:24;;;;;;;;;;;;;;;9.35;53.14;100368.66;104137;277;113011;-54
2023/05/02 02:46:04;;;;;;;;;;;;;;;9.36;53.11;100365.87;104581;277;92354;-54
2023/05/02 02:48:38;;;;;;;;;;;;;;;9.33;53.17;100367.27;104614;277;96465;-54
2023/05/02 02:51:14;;;;;;;;;;;;;;;9.32;53.32;100368.34;104620;277;121155;-57
2023/05/02 02:53:54;;;;;;;;;;;;;;;9.29;53.32;100363.60;104139;277;105727;-57
2023/05/02 02:56:30;;;;;;;;;;;;;;;9.25;53.22;100357.25;104090;277;114914;-56
2023/05/02 02:59:05;;;;;;;;;;;;;;;9.21;53.36;100357.95;104575;277;93462;-56
2023/05/02 03:01:39;;;;;;;;;;;;;;;9.15;53.41;100359.88;103990;279;97734;-54
2023/05/02 03:04:13;;;;;;;;;;;;;;;9.12;53.42;100357.17;104580;277;121894;-54
2023/05/02 03:06:45;;;;;;;;;;;;;;;9.09;53.55;100352.55;104138;277;105724;-55
2023/05/02 03:09:18;;;;;;;;;;;;;;;9.06;53.85;100351.33;104120;277;112729;-55
2023/05/02 03:11:50;;;;;;;;;;;;;;;9.02;53.92;100359.55;104113;277;92865;-56
2023/05/02 03:14:25;;;;;;;;;;;;;;;8.99;53.84;100356.30;104607;277;97958;-56
2023/05/02 03:16:58;;;;;;;;;;;;;;;8.94;53.97;100356.69;104120;277;120651;-54
2023/05/02 03:19:30;;;;;;;;;;;;;;;8.93;53.99;100356.45;104146;278;106328;-54
2023/05/02 03:22:03;;;;;;;;;;;;;;;8.89;54.31;100355.53;104107;278;114184;-55
2023/05/02 03:24:36;;;;;;;;;;;;;;;8.88;54.48;100357.63;104101;277;92682;-54
2023/05/02 03:27:08;;;;;;;;;;;;;;;8.88;54.44;100357.11;104594;277;97693;-54
2023/05/02 03:29:40;;;;;;;;;;;;;;;8.90;54.55;100355.29;104125;278;121246;-54
2023/05/02 03:32:12;;;;;;;;;;;;;;;8.96;54.61;100356.08;104584;277;106218;-54
2023/05/02 03:34:44;;;;;;;;;;;;;;;9.00;54.58;100360.77;104074;277;114464;-54
2023/05/02 03:37:16;;;;;;;;;;;;;;;9.04;54.62;100361.63;104131;278;91225;-55
2023/05/02 03:39:48;;;;;;;;;;;;;;;9.05;54.66;100358.78;104117;277;98383;-57
2023/05/02 03:42:21;;;;;;;;;;;;;;;9.08;54.86;100356.23;104122;278;121920;-57
2023/05/02 03:44:55;;;;;;;;;;;;;;;9.10;54.74;100354.69;104116;277;105854;-56
2023/05/02 03:47:27;;;;;;;;;;;;;;;9.14;54.86;100355.55;104588;277;113220;-56
2023/05/02 03:50:00;;;;;;;;;;;;;;;9.21;54.66;100353.44;104137;277;93202;-56
2023/05/02 03:52:33;;;;;;;;;;;;;;;9.25;54.70;100356.86;104140;277;98333;-56
2023/05/02 03:55:07;;;;;;;;;;;;;;;9.31;54.75;100352.56;104156;277;120952;-54
2023/05/02 03:57:39;;;;;;;;;;;;;;;9.38;54.81;100352.06;104142;277;103222;-54
2023/05/02 04:00:13;;;;;;;;;;;;;;;9.50;54.74;100353.86;104130;278;114566;-56
2023/05/02 04:02:45;;;;;;;;;;;;;;;9.60;54.75;100353.90;104096;277;93795;-56
2023/05/02 04:05:17;;;;;;;;;;;;;;;9.69;54.58;100354.23;104598;277;95369;-53
2023/05/02 04:07:50;;;;;;;;;;;;;;;9.81;54.60;100355.33;104132;277;120855;-54
2023/05/02 04:10:22;;;;;;;;;;;;;;;9.93;54.45;100354.38;104147;277;105821;-56
2023/05/02 04:12:54;;;;;;;;;;;;;;;10.09;54.39;100352.11;104123;277;113703;-56
2023/05/02 04:15:26;;;;;;;;;;;;;;;10.23;54.36;100350.52;104613;277;94291;-54
2023/05/02 04:17:59;;;;;;;;;;;;;;;10.46;54.10;100355.98;104632;277;95938;-54
2023/05/02 04:20:31;;;;;;;;;;;;;;;10.61;53.96;100354.71;104124;277;120148;-56
2023/05/02 04:23:03;;;;;;;;;;;;;;;10.70;53.77;100354.56;104605;277;106135;-57
2023/05/02 04:25:35;;;;;;;;;;;;;;;10.82;53.53;100356.10;104141;277;114637;-57
2023/05/02 04:28:08;;;;;;;;;;;;;;;10.90;53.37;100356.27;104154;277;93894;-57
2023/05/02 04:30:40;;;;;;;;;;;;;;;11.03;53.27;100354.08;104174;277;97464;-56
2023/05/02 04:33:12;;;;;;;;;;;;;;;11.18;53.01;100353.76;104595;277;120910;-56
2023/05/02 04:35:44;;;;;;;;;;;;;;;11.41;52.85;100349.26;104641;277;103676;-54
2023/05/02 04:38:16;;;;;;;;;;;;;;;11.66;52.81;100347.23;104174;277;114994;-54
2023/05/02 04:40:50;;;;;;;;;;;;;;;12.10;52.21;100349.66;104614;277;93843;-57
2023/05/02 04:43:22;;;;;;;;;;;;;;;12.41;51.82;100349.61;104626;277;98117;-57
2023/05/02 04:45:55;;;;;;;;;;;;;;;12.74;51.40;100350.78;104173;277;121649;-57
2023/05/02 04:48:27;;;;;;;;;;;;;;;13.16;51.04;100350.35;104158;277;106068;-57
2023/05/02 04:50:59;;;;;;;;;;;;;;;13.46;50.42;100351.13;104179;277;113504;-54
2023/05/02 04:53:32;;;;;;;;;;;;;;;13.65;50.07;100342.73;104599;278;94503;-54
2023/05/02 04:56:04;;;;;;;;;;;;;;;13.88;49.66;100344.60;104175;277;97225;-55
2023/05/02 04:58:36;;;;;;;;;;;;;;;14.43;49.27;100346.00;104180;277;121649;-55
2023/05/02 05:01:08;;;;;;;;;;;;;;;15.14;48.48;100346.52;104633;278;103759;-56
2023/05/02 05:03:41;;;;;;;;;;;;;;;15.99;47.67;100340.69;104622;277;115747;-56
2023/05/02 05:06:13;;;;;;;;;;;;;;;16.62;46.51;100342.27;104173;277;92146;-57
2023/05/02 05:08:45;;;;;;;;;;;;;;;17.97;45.07;100336.25;104626;277;97297;-57
2023/05/02 05:11:17;;;;;;;;;;;;;;;19.15;43.70;100334.00;104120;277;122335;-57
2023/05/02 05:13:50;;;;;;;;;;;;;;;19.84;41.96;100329.70;104627;277;103535;-57
2023/05/02 05:16:22;;;;;;;;;;;;;;;20.23;41.00;100326.48;104148;277;113171;-55
2023/05/02 05:18:54;;;;;;;;;;;;;;;19.97;39.89;100329.23;104574;277;93394;-55
2023/05/02 05:21:27;;;;;;;;;;;;;;;19.91;39.76;100326.39;104632;277;97394;-55
2023/05/02 05:23:59;;;;;;;;;;;;;;;20.27;39.17;100318.85;104163;277;120812;-54
2023/05/02 05:26:31;;;;;;;;;;;;;;;21.27;38.71;100318.87;104610;277;105457;-54
2023/05/02 05:29:03;;;;;;;;;;;;;;;22.40;37.57;100315.08;104603;277;115019;-54
2023/05/02 05:31:35;;;;;;;;;;;;;;;23.46;37.04;100310.42;104181;277;93887;-54
2023/05/02 05:34:08;;;;;;;;;;;;;;;24.68;36.34;100310.81;104155;277;97948;-55
2023/05/02 05:36:40;;;;;;;;;;;;;;;25.45;35.20;100312.12;104179;277;121308;-56
2023/05/02 05:39:13;;;;;;;;;;;;;;;26.24;34.35;100310.02;104154;277;104621;-55
2023/05/02 05:41:45;;;;;;;;;;;;;;;25.67;33.57;100311.28;104156;277;113922;-54
2023/05/02 05:44:18;;;;;;;;;;;;;;;24.50;33.22;100314.36;104136;278;93889;-54
2023/05/02 05:46:50;;;;;;;;;;;;;;;23.20;33.67;100316.85;104164;277;97226;-54
2023/05/02 05:49:23;;;;;;;;;;;;;;;22.29;34.54;100312.22;104146;277;121324;-54
2023/05/02 05:51:55;;;;;;;;;;;;;;;23.28;34.87;100311.80;104135;278;105433;-56
2023/05/02 05:54:28;;;;;;;;;;;;;;;22.97;33.65;100312.69;104123;277;114427;-56
2023/05/02 05:57:00;;;;;;;;;;;;;;;22.66;33.97;100314.90;104115;277;94495;-56
2023/05/02 05:59:35;;;;;;;;;;;;;;;24.23;34.23;100311.73;104617;277;97730;-55
2023/05/02 06:02:07;;;;;;;;;;;;;;;25.18;33.19;100314.90;104624;278;119997;-55
2023/05/02 06:04:39;;;;;;;;;;;;;;;24.70;32.57;100310.81;104151;277;106074;-55
2023/05/02 06:07:14;;;;;;;;;;;;;;;23.70;32.74;100317.60;104156;277;113380;-54
2023/05/02 06:09:46;;;;;;;;;;;;;;;23.03;33.16;100318.27;104195;277;95510;-57
2023/05/02 06:12:18;;;;;;;;;;;;;;;22.72;33.35;100317.48;104152;277;98404;-56
2023/05/02 06:14:51;;;;;;;;;;;;;;;22.26;33.89;100312.91;104138;278;121195;-55
2023/05/02 06:17:23;;;;;;;;;;;;;;;22.16;34.29;100317.49;104140;277;103727;-55
2023/05/02 06:19:55;;;;;;;;;;;;;;;22.46;34.51;100320.45;104082;278;114246;-55
2023/05/02 06:22:28;;;;;;;;;;;;;;;22.22;34.13;100319.50;104141;277;94025;-55
2023/05/02 06:25:00;;;;;;;;;;;;;;;21.92;34.80;100321.08;104134;277;97546;-58
2023/05/02 06:27:32;;;;;;;;;;;;;;;21.64;35.43;100328.23;104112;277;121886;-58
2023/05/02 06:30:05;;;;;;;;;;;;;;;21.84;35.47;100329.20;104588;278;105866;-55
2023/05/02 06:32:37;;;;;;;;;;;;;;;22.86;35.35;100323.69;104595;277;114922;-56
2023/05/02 06:35:10;;;;;;;;;;;;;;;23.69;35.28;100322.29;104614;278;95229;-56
2023/05/02 06:37:42;;;;;;;;;;;;;;;25.79;34.14;100321.59;104102;277;97453;-55
2023/05/02 06:40:15;;;;;;;;;;;;;;;27.41;32.89;100317.25;104119;277;119658;-55
2023/05/02 06:42:47;;;;;;;;;;;;;;;28.42;31.88;100311.64;104600;277;104071;-55
2023/05/02 06:45:20;;;;;;;;;;;;;;;29.29;30.81;100313.15;104091;277;114845;-56
2023/05/02 06:47:52;;;;;;;;;;;;;;;29.77;28.86;100317.40;104124;277;93826;-56
2023/05/02 06:50:24;;;;;;;;;;;;;;;29.21;28.90;100317.64;104104;277;97231;-55
2023/05/02 06:52:56;;;;;;;;;;;;;;;28.92;29.13;100316.48;104555;277;122864;-55
2023/05/02 06:55:28;;;;;;;;;;;;;;;28.73;29.05;100317.51;104585;277;105739;-55
2023/05/02 06:58:01;;;;;;;;;;;;;;;28.40;29.09;100320.84;104091;277;114721;-55
2023/05/02 07:00:33;;;;;;;;;;;;;;;28.21;29.05;100322.13;104595;278;94323;-57
2023/05/02 07:03:05;;;;;;;;;;;;;;;28.13;29.34;100322.79;104587;277;96789;-58
2023/05/02 07:05:37;;;;;;;;;;;;;;;28.45;29.05;100319.85;104080;277;122229;-56
2023/05/02 07:08:11;;;;;;;;;;;;;;;28.96;29.21;100321.27;104127;277;105659;-58
2023/05/02 07:10:43;;;;;;;;;;;;;;;29.60;28.77;100319.86;104091;277;114694;-56
2023/05/02 07:13:15;;;;;;;;;;;;;;;29.60;28.56;100316.75;104575;277;94671;-57
2023/05/02 07:15:48;;;;;;;;;;;;;;;29.17;28.63;100315.91;104158;277;96808;-58
2023/05/02 07:18:20;;;;;;;;;;;;;;;29.44;28.38;100315.48;104114;278;121504;-59
2023/05/02 07:20:53;;;;;;;;;;;;;;;30.14;28.46;100317.77;104100;277;104178;-56
2023/05/02 07:23:26;;;;;;;;;;;;;;;30.61;27.72;100313.99;104099;277;114864;-56
2023/05/02 07:25:58;;;;;;;;;;;;;;;31.32;27.03;100312.89;103958;278;93587;-58
2023/05/02 07:28:30;;;;;;;;;;;;;;;31.74;26.41;100316.61;104601;277;98097;-57
2023/05/02 07:31:03;;;;;;;;;;;;;;;32.24;25.51;100317.30;104101;277;122624;-58
2023/05/02 07:33:35;;;;;;;;;;;;;;;32.04;24.88;100318.39;104080;277;104216;-58
2023/05/02 07:36:08;;;;;;;;;;;;;;;31.86;24.88;100319.31;104122;277;113428;-58
2023/05/02 07:38:40;;;;;;;;;;;;;;;31.71;25.31;100318.66;104104;277;94590;-58
2023/05/02 07:41:13;;;;;;;;;;;;;;;31.33;25.20;100316.59;104115;277;97555;-56
2023/05/02 07:43:45;;;;;;;;;;;;;;;31.04;25.62;100315.77;104109;277;122292;-55
2023/05/02 07:46:17;;;;;;;;;;;;;;;31.41;25.78;100312.66;104136;266;103301;-55
2023/05/02 07:48:49;;;;;;;;;;;;;;;31.89;25.44;100317.86;104088;278;114608;-55
2023/05/02 07:51:22;;;;;;;;;;;;;;;31.97;25.69;100321.33;104099;278;94255;-55
2023/05/02 07:53:57;;;;;;;;;;;;;;;32.00;25.03;100320.45;104134;277;97832;-55
2023/05/02 07:56:30;;;;;;;;;;;;;;;32.15;25.22;100325.86;104559;282;121479;-58
2023/05/02 07:59:02;;;;;;;;;;;;;;;32.14;25.15;100328.40;104162;277;104349;-58
2023/05/02 08:01:35;;;;;;;;;;;;;;;32.29;24.52;100333.25;104096;277;113821;-55
2023/05/02 08:04:07;;;;;;;;;;;;;;;32.22;23.85;100332.65;104543;278;93809;-55
2023/05/02 08:06:39;;;;;;;;;;;;;;;32.06;24.94;100331.80;104109;277;97674;-58
2023/05/02 08:09:11;;;;;;;;;;;;;;;32.53;24.44;100336.93;104127;277;121096;-58
2023/05/02 08:11:43;;;;;;;;;;;;;;;32.62;23.66;100340.42;104583;278;104923;-56
2023/05/02 08:14:16;;;;;;;;;;;;;;;32.56;24.07;100336.48;104150;277;113229;-56
2023/05/02 08:16:48;;;;;;;;;;;;;;;32.34;23.77;100343.93;104129;278;94889;-56
2023/05/02 08:19:21;;;;;;;;;;;;;;;32.46;24.49;100346.20;104155;277;97643;-56
2023/05/02 08:21:55;;;;;;;;;;;;;;;32.80;24.75;100345.05;103941;277;124144;-58
2023/05/02 08:24:27;;;;;;;;;;;;;;;33.03;24.80;100345.55;104625;277;104761;-59
2023/05/02 08:27:02;;;;;;;;;;;;;;;33.00;24.80;100347.56;104590;277;114491;-57
2023/05/02 08:29:34;;;;;;;;;;;;;;;33.00;24.75;100344.08;104115;277;93584;-58
2023/05/02 08:32:07;;;;;;;;;;;;;;;32.85;24.64;100349.89;104137;277;96437;-58
2023/05/02 08:34:39;;;;;;;;;;;;;;;32.60;24.86;100353.62;104121;277;120970;-56
2023/05/02 08:37:12;;;;;;;;;;;;;;;32.58;24.86;100355.45;104165;277;105247;-56
2023/05/02 08:39:44;;;;;;;;;;;;;;;32.48;25.01;100357.80;104136;277;114096;-56
2023/05/02 08:42:16;;;;;;;;;;;;;;;32.23;24.38;100360.56;104628;277;94778;-56
2023/05/02 08:44:49;;;;;;;;;;;;;;;31.73;24.29;100362.63;104172;277;97691;-55
2023/05/02 08:47:23;;;;;;;;;;;;;;;31.34;24.64;100364.42;104132;277;121015;-62
2023/05/02 08:49:55;;;;;;;;;;;;;;;31.02;24.85;100366.30;104599;277;105790;-63
2023/05/02 08:52:28;;;;;;;;;;;;;;;31.04;25.23;100369.59;104149;277;113500;-62
2023/05/02 08:55:01;;;;;;;;;;;;;;;31.01;25.07;100371.19;104132;277;94298;-61
2023/05/02 08:57:33;;;;;;;;;;;;;;;31.11;25.77;100365.13;104631;277;96859;-61
2023/05/02 09:00:07;;;;;;;;;;;;;;;31.28;25.40;100364.19;104122;277;120215;-54
2023/05/02 09:02:57;;;;;;;;;;;;;;;30.76;24.87;100369.10;104153;277;104600;-54
2023/05/02 09:05:33;;;;;;;;;;;;;;;30.01;25.88;100368.80;104138;277;114590;-56
2023/05/02 09:08:06;;;;;;;;;;;;;;;29.63;26.44;100371.02;104153;277;94811;-61
2023/05/02 09:10:39;;;;;;;;;;;;;;;29.69;27.33;100369.83;104180;277;96248;-61
2023/05/02 09:13:31;;;;;;;;;;;;;;;29.62;26.66;100369.70;104165;277;121736;-61
2023/05/02 09:16:05;;;;;;;;;;;;;;;28.98;26.87;100378.73;104158;277;106048;-62
2023/05/02 09:18:39;;;;;;;;;;;;;;;28.36;27.38;100384.17;104112;277;113157;-61
2023/05/02 09:21:12;;;;;;;;;;;;;;;27.94;27.77;100380.99;104142;277;93691;-61
2023/05/02 09:23:46;;;;;;;;;;;;;;;27.56;28.55;100382.36;104138;277;98253;-57
2023/05/02 09:26:20;;;;;;;;;;;;;;;27.26;28.87;100384.08;104130;277;121236;-55
2023/05/02 09:28:52;;;;;;;;;;;;;;;26.84;29.53;100388.58;103666;278;473787;-55
2023/05/02 09:31:26;;;;;;;;;;;;;;;26.58;30.05;100396.80;104120;277;114531;-56
2023/05/02 09:34:07;;;;;;;;;;;;;;;26.42;30.52;100403.64;104554;277;94314;-56
2023/05/02 09:36:43;;;;;;;;;;;;;;;26.20;30.45;100408.67;104614;277;97615;-56
2023/05/02 09:39:16;;;;;;;;;;;;;;;26.01;31.22;100408.67;104610;277;120322;-56
2023/05/02 09:41:49;;;;;;;;;;;;;;;26.06;31.43;100413.33;104638;277;105957;-58
2023/05/02 09:44:23;;;;;;;;;;;;;;;26.01;31.81;100417.80;104623;277;114472;-57
2023/05/02 09:46:57;;;;;;;;;;;;;;;25.97;32.23;100416.45;104102;277;94087;-56
2023/05/02 09:49:43;;;;;;;;;;;;;;;26.24;32.54;100419.88;104609;277;97543;-56
2023/05/02 09:52:16;;;;;;;;;;;;;;;26.43;31.95;100415.98;104118;277;120903;-55
2023/05/02 09:54:51;;;;;;;;;;;;;;;26.51;32.51;100420.82;104124;277;105292;-57
2023/05/02 09:57:39;;;;;;;;;;;;;;;26.46;31.98;100423.77;104575;277;113523;-56
2023/05/02 10:00:15;;;;;;;;;;;;;;;26.26;32.41;100429.02;104115;277;92905;-58
2023/05/02 10:02:49;;;;;;;;;;;;;;;26.22;32.48;100431.52;104130;277;96346;-58
2023/05/02 10:05:21;;;;;;;;;;;;;;;26.26;32.58;100434.10;104592;278;120782;-55
2023/05/02 10:07:53;;;;;;;;;;;;;;;26.53;32.72;100432.10;104066;277;103971;-55
2023/05/02 10:10:26;;;;;;;;;;;;;;;26.97;32.82;100431.17;104084;277;115225;-55
2023/05/02 10:12:59;;;;;;;;;;;;;;;27.13;32.61;100434.05;104103;277;94985;-55
2023/05/02 10:15:32;;;;;;;;;;;;;;;26.93;32.26;100442.19;104083;278;96765;-55
2023/05/02 10:18:09;;;;;;;;;;;;;;;26.74;32.77;100447.41;104594;277;119996;-54
2023/05/02 10:20:49;;;;;;;;;;;;;;;26.65;33.35;100450.71;104629;277;105522;-54
2023/05/02 10:23:22;;;;;;;;;;;;;;;26.94;33.24;100454.17;104559;277;113371;-54
2023/05/02 10:25:54;;;;;;;;;;;;;;;26.78;33.07;100463.71;103956;278;94605;-58
2023/05/02 10:28:27;;;;;;;;;;;;;;;26.45;33.35;100469.92;104614;277;96955;-57
2023/05/02 10:31:01;;;;;;;;;;;;;;;25.96;33.53;100476.55;104086;277;121411;-55
2023/05/02 10:33:34;;;;;;;;;;;;;;;25.59;33.74;100481.67;104076;277;105476;-54
2023/05/02 10:36:08;;;;;;;;;;;;;;;25.20;34.00;100482.35;104093;277;113038;-57
2023/05/02 10:38:40;;;;;;;;;;;;;;;24.80;34.32;100489.96;104563;277;93822;-58
2023/05/02 10:41:16;;;;;;;;;;;;;;;24.46;34.43;100489.00;104130;277;97360;-57
2023/05/02 10:43:50;;;;;;;;;;;;;;;24.12;35.15;100493.61;104084;277;121918;-57
2023/05/02 10:46:34;;;;;;;;;;;;;;;23.84;35.69;100499.92;104150;277;105549;-55
2023/05/02 10:49:08;;;;;;;;;;;;;;;23.40;36.06;100507.20;104597;277;114850;-55
2023/05/02 10:51:42;;;;;;;;;;;;;;;22.97;36.58;100520.56;104107;277;94919;-54
2023/05/02 10:54:26;;;;;;;;;;;;;;;22.48;37.54;100532.45;104580;277;97408;-55
2023/05/02 10:57:08;;;;;;;;;;;;;;;21.85;38.84;100533.64;104106;277;122550;-55
2023/05/02 10:59:41;;;;;;;;;;;;;;;21.41;39.86;100531.77;104115;277;104562;-58
2023/05/02 11:02:48;;;;;;;;;;;;;;;21.11;41.13;100541.93;104105;277;113910;-58
2023/05/02 11:05:22;;;;;;;;;;;;;;;20.69;42.92;100545.61;104007;277;94599;-54
2023/05/02 11:10:57;;;;;;;;;;;;;;;20.32;44.93;100549.41;100477;295;617702;-56
2023/05/02 11:13:53;;;;;;;;;;;;;;;20.37;45.47;100560.20;101666;289;94893;-54
2023/05/02 11:16:49;;;;;;;;;;;;;;;20.31;46.28;100567.35;101638;289;97403;-56
2023/05/02 11:19:24;;;;;;;;;;;;;;;20.23;46.55;100572.67;101740;287;116789;-57
2023/05/02 11:22:32;;;;;;;;;;;;;;;20.16;46.89;100579.89;101774;287;105749;-54
2023/05/02 11:25:28;;;;;;;;;;;;;;;19.91;47.22;100585.96;101400;286;541688;-58
2023/05/02 11:28:05;;;;;;;;;;;;;;;19.61;47.76;100595.13;101854;285;94397;-58
2023/05/02 11:30:47;;;;;;;;;;;;;;;19.51;48.59;100606.00;101837;286;97914;-56
2023/05/02 11:33:27;;;;;;;;;;;;;;;19.47;49.23;100611.44;101782;286;117121;-58
2023/05/02 11:36:03;;;;;;;;;;;;;;;19.53;49.73;100611.58;101861;286;105879;-58
2023/05/02 11:38:40;;;;;;;;;;;;;;;19.59;49.97;100607.05;101849;286;115558;-59
2023/05/02 11:41:16;;;;;;;;;;;;;;;19.64;50.36;100602.48;101890;274;93524;-57
2023/05/02 11:44:05;;;;;;;;;;;;;;;19.57;50.44;100608.88;101839;286;98392;-57
2023/05/02 11:46:38;;;;;;;;;;;;;;;19.58;50.36;100614.64;101834;286;118867;-57
2023/05/02 11:49:13;;;;;;;;;;;;;;;19.53;50.67;100616.34;102056;283;105057;-58
2023/05/02 11:51:54;;;;;;;;;;;;;;;19.66;51.28;100618.80;102088;283;113981;-59
2023/05/02 11:54:31;;;;;;;;;;;;;;;19.91;51.35;100614.59;102079;283;95269;-55
2023/05/02 11:57:06;;;;;;;;;;;;;;;20.00;50.30;100614.02;102203;281;97470;-55
2023/05/02 11:59:54;;;;;;;;;;;;;;;20.07;50.12;100616.43;102200;281;119089;-55
2023/05/02 12:02:44;;;;;;;;;;;;;;;20.22;50.29;100620.78;102215;281;106430;-55
2023/05/02 12:05:29;;;;;;;;;;;;;;;20.63;50.18;100618.52;102208;281;115079;-55
2023/05/02 12:08:09;;;;;;;;;;;;;;;20.92;49.65;100621.59;102724;277;93153;-56
2023/05/02 12:10:44;;;;;;;;;;;;;;;21.27;49.40;100618.48;102753;277;96393;-56
2023/05/02 12:13:19;;;;;;;;;;;;;;;21.65;48.90;100619.50;102759;277;117719;-56
2023/05/02 12:15:55;;;;;;;;;;;;;;;21.86;48.23;100609.58;102764;277;105801;-56
2023/05/02 12:18:32;;;;;;;;;;;;;;;21.86;47.95;100614.08;102762;277;113238;-56
2023/05/02 12:21:07;;;;;;;;;;;;;;;21.73;47.99;100616.95;102774;276;95071;-57
2023/05/02 12:23:40;;;;;;;;;;;;;;;21.63;47.64;100623.80;102793;276;98719;-56
2023/05/02 12:26:28;;;;;;;;;;;;;;;21.51;47.58;100621.79;102755;276;117346;-56
2023/05/02 12:29:07;;;;;;;;;;;;;;;21.38;47.35;100628.33;102610;277;107731;-54
2023/05/02 12:31:53;;;;;;;;;;;;;;;21.38;47.11;100625.63;102733;276;115012;-57
2023/05/02 12:34:37;;;;;;;;;;;;;;;21.46;46.97;100630.55;102762;276;92927;-57
2023/05/02 12:37:11;;;;;;;;;;;;;;;21.36;46.71;100630.66;102779;277;98030;-57
2023/05/02 12:39:47;;;;;;;;;;;;;;;21.26;46.51;100632.10;102792;277;118388;-55
2023/05/02 12:42:22;;;;;;;;;;;;;;;21.16;46.30;100631.44;102779;276;105586;-54
2023/05/02 12:44:55;;;;;;;;;;;;;;;21.07;45.78;100634.91;102755;276;113058;-55
2023/05/02 12:47:31;;;;;;;;;;;;;;;21.03;45.48;100636.26;102744;276;94806;-55
2023/05/02 12:50:05;;;;;;;;;;;;;;;20.86;45.22;100637.91;102776;276;97223;-55
2023/05/02 12:52:57;;;;;;;;;;;;;;;20.81;45.29;100638.05;102741;276;120064;-57
2023/05/02 12:55:40;;;;;;;;;;;;;;;20.73;45.10;100640.72;102734;276;106203;-55
2023/05/02 12:58:13;;;;;;;;;;;;;;;20.72;45.17;100640.48;102717;276;114364;-55
2023/05/02 13:00:54;;;;;;;;;;;;;;;20.73;44.98;100640.23;102797;276;94374;-57
2023/05/02 13:03:31;;;;;;;;;;;;;;;20.86;44.92;100643.73;102711;276;98331;-57
2023/05/02 13:06:10;;;;;;;;;;;;;;;20.74;44.43;100652.94;102792;276;118110;-55
2023/05/02 13:08:46;;;;;;;;;;;;;;;20.88;43.99;100653.21;102756;276;103953;-55
2023/05/02 13:11:23;;;;;;;;;;;;;;;21.03;44.05;100654.60;102733;276;114190;-55
2023/05/02 13:13:59;;;;;;;;;;;;;;;21.26;43.86;100655.98;102758;277;94946;-55